sensor_id;sensor_type;location;lat;lon;timestamp;P1;durP1;ratioP1;P2;durP2;ratioP2
54372;SDS011;69157;53.094;10.016;2023-05-10T00:01:40;1.08;;;0.98;;
54372;SDS011;69157;53.094;10.016;2023-05-10T00:04:06;1.13;;;0.70;;
54372;SDS011;69157;53.094;10.016;2023-05-10T00:06:32;1.92;;;1.00;;
54372;SDS011;69157;53.094;10.016;2023-05-10T00:08:58;1.42;;;1.00;;
54372;SDS011;69157;53.094;10.016;2023-05-10T00:11:24;1.38;;;1.08;;
54372;SDS011;69157;53.094;10.016;2023-05-10T00:13:50;1.95;;;1.10;;
54372;SDS011;69157;53.094;10.016;2023-05-10T00:16:16;1.10;;;0.75;;
54372;SDS011;69157;53.094;10.016;2023-05-10T00:18:42;2.05;;;1.20;;
54372;SDS011;69157;53.094;10.016;2023-05-10T00:21:08;1.30;;;1.20;;
54372;SDS011;69157;53.094;10.016;2023-05-10T00:23:34;1.10;;;1.00;;
54372;SDS011;69157;53.094;10.016;2023-05-10T00:26:00;1.10;;;1.00;;
54372;SDS011;69157;53.094;10.016;2023-05-10T00:28:27;1.35;;;1.00;;
54372;SDS011;69157;53.094;10.016;2023-05-10T00:30:53;1.20;;;1.10;;
54372;SDS011;69157;53.094;10.016;2023-05-10T00:33:20;1.48;;;0.98;;
54372;SDS011;69157;53.094;10.016;2023-05-10T00:35:46;1.30;;;0.85;;
54372;SDS011;69157;53.094;10.016;2023-05-10T00:38:12;1.42;;;1.10;;
54372;SDS011;69157;53.094;10.016;2023-05-10T00:40:39;1.23;;;0.77;;
54372;SDS011;69157;53.094;10.016;2023-05-10T00:43:05;1.27;;;0.93;;
54372;SDS011;69157;53.094;10.016;2023-05-10T00:45:32;1.90;;;1.10;;
54372;SDS011;69157;53.094;10.016;2023-05-10T00:47:59;0.77;;;0.77;;
54372;SDS011;69157;53.094;10.016;2023-05-10T00:50:27;1.02;;;0.90;;
54372;SDS011;69157;53.094;10.016;2023-05-10T00:52:53;1.58;;;1.13;;
54372;SDS011;69157;53.094;10.016;2023-05-10T00:55:20;1.55;;;1.15;;
54372;SDS011;69157;53.094;10.016;2023-05-10T00:57:46;1.35;;;1.20;;
54372;SDS011;69157;53.094;10.016;2023-05-10T01:00:13;1.50;;;0.98;;
54372;SDS011;69157;53.094;10.016;2023-05-10T01:02:43;2.08;;;1.20;;
54372;SDS011;69157;53.094;10.016;2023-05-10T01:05:09;1.00;;;0.90;;
54372;SDS011;69157;53.094;10.016;2023-05-10T01:07:35;1.02;;;0.82;;
54372;SDS011;69157;53.094;10.016;2023-05-10T01:10:01;1.52;;;1.20;;
54372;SDS011;69157;53.094;10.016;2023-05-10T01:12:27;2.17;;;1.08;;
54372;SDS011;69157;53.094;10.016;2023-05-10T01:14:53;1.58;;;0.98;;
54372;SDS011;69157;53.094;10.016;2023-05-10T01:17:20;1.52;;;1.23;;
54372;SDS011;69157;53.094;10.016;2023-05-10T01:19:55;1.88;;;1.48;;
54372;SDS011;69157;53.094;10.016;2023-05-10T01:38:21;1.33;;;1.08;;
54372;SDS011;69157;53.094;10.016;2023-05-10T01:40:52;1.40;;;1.00;;
54372;SDS011;69157;53.094;10.016;2023-05-10T01:43:24;1.98;;;1.30;;
54372;SDS011;69157;53.094;10.016;2023-05-10T01:46:02;1.60;;;1.08;;
54372;SDS011;69157;53.094;10.016;2023-05-10T01:48:35;1.67;;;1.20;;
54372;SDS011;69157;53.094;10.016;2023-05-10T01:51:01;1.35;;;0.88;;
54372;SDS011;69157;53.094;10.016;2023-05-10T01:53:27;1.38;;;1.08;;
54372;SDS011;69157;53.094;10.016;2023-05-10T01:55:53;2.05;;;0.95;;
54372;SDS011;69157;53.094;10.016;2023-05-10T01:58:22;1.88;;;1.10;;
54372;SDS011;69157;53.094;10.016;2023-05-10T02:00:50;1.23;;;0.93;;
54372;SDS011;69157;53.094;10.016;2023-05-10T02:03:17;1.48;;;1.17;;
54372;SDS011;69157;53.094;10.016;2023-05-10T02:05:44;1.95;;;1.10;;
54372;SDS011;69157;53.094;10.016;2023-05-10T02:08:11;1.00;;;0.90;;
54372;SDS011;69157;53.094;10.016;2023-05-10T02:10:39;2.03;;;1.30;;
54372;SDS011;69157;53.094;10.016;2023-05-10T02:13:05;1.90;;;1.08;;
54372;SDS011;69157;53.094;10.016;2023-05-10T02:15:32;1.83;;;1.17;;
54372;SDS011;69157;53.094;10.016;2023-05-10T02:17:59;2.10;;;1.17;;
54372;SDS011;69157;53.094;10.016;2023-05-10T02:20:26;0.93;;;0.93;;
54372;SDS011;69157;53.094;10.016;2023-05-10T02:22:54;1.50;;;1.20;;
54372;SDS011;69157;53.094;10.016;2023-05-10T02:25:20;3.00;;;1.52;;
54372;SDS011;69157;53.094;10.016;2023-05-10T02:27:47;2.80;;;1.45;;
54372;SDS011;69157;53.094;10.016;2023-05-10T02:30:14;2.33;;;1.42;;
54372;SDS011;69157;53.094;10.016;2023-05-10T02:32:41;1.20;;;0.90;;
54372;SDS011;69157;53.094;10.016;2023-05-10T02:35:08;1.63;;;1.30;;
54372;SDS011;69157;53.094;10.016;2023-05-10T02:37:35;1.40;;;1.20;;
54372;SDS011;69157;53.094;10.016;2023-05-10T02:40:02;2.55;;;1.30;;
54372;SDS011;69157;53.094;10.016;2023-05-10T02:42:31;2.13;;;1.38;;
54372;SDS011;69157;53.094;10.016;2023-05-10T02:45:02;2.08;;;0.93;;
54372;SDS011;69157;53.094;10.016;2023-05-10T02:47:31;1.45;;;1.17;;
54372;SDS011;69157;53.094;10.016;2023-05-10T02:49:57;2.05;;;1.50;;
54372;SDS011;69157;53.094;10.016;2023-05-10T02:52:24;1.73;;;1.48;;
54372;SDS011;69157;53.094;10.016;2023-05-10T02:54:52;2.22;;;1.40;;
54372;SDS011;69157;53.094;10.016;2023-05-10T02:57:22;1.77;;;1.30;;
54372;SDS011;69157;53.094;10.016;2023-05-10T02:59:50;1.20;;;0.95;;
54372;SDS011;69157;53.094;10.016;2023-05-10T03:02:16;2.28;;;1.15;;
54372;SDS011;69157;53.094;10.016;2023-05-10T03:04:42;2.08;;;1.55;;
54372;SDS011;69157;53.094;10.016;2023-05-10T03:07:09;1.92;;;1.50;;
54372;SDS011;69157;53.094;10.016;2023-05-10T03:09:35;1.70;;;1.05;;
54372;SDS011;69157;53.094;10.016;2023-05-10T03:14:45;1.73;;;1.40;;
54372;SDS011;69157;53.094;10.016;2023-05-10T03:17:19;1.45;;;0.90;;
54372;SDS011;69157;53.094;10.016;2023-05-10T03:22:17;1.48;;;1.15;;
54372;SDS011;69157;53.094;10.016;2023-05-10T03:24:47;1.35;;;1.02;;
54372;SDS011;69157;53.094;10.016;2023-05-10T03:27:14;1.92;;;1.33;;
54372;SDS011;69157;53.094;10.016;2023-05-10T03:29:40;1.45;;;1.35;;
54372;SDS011;69157;53.094;10.016;2023-05-10T03:32:07;1.52;;;1.20;;
54372;SDS011;69157;53.094;10.016;2023-05-10T03:34:34;1.90;;;1.17;;
54372;SDS011;69157;53.094;10.016;2023-05-10T03:37:01;1.38;;;1.10;;
54372;SDS011;69157;53.094;10.016;2023-05-10T03:39:27;2.45;;;1.67;;
54372;SDS011;69157;53.094;10.016;2023-05-10T03:41:53;1.83;;;1.20;;
54372;SDS011;69157;53.094;10.016;2023-05-10T03:44:19;1.30;;;1.10;;
54372;SDS011;69157;53.094;10.016;2023-05-10T03:46:45;3.05;;;1.40;;
54372;SDS011;69157;53.094;10.016;2023-05-10T03:49:11;3.53;;;1.70;;
54372;SDS011;69157;53.094;10.016;2023-05-10T03:51:37;2.08;;;1.42;;
54372;SDS011;69157;53.094;10.016;2023-05-10T03:54:03;1.25;;;1.10;;
54372;SDS011;69157;53.094;10.016;2023-05-10T03:56:29;1.48;;;1.35;;
54372;SDS011;69157;53.094;10.016;2023-05-10T03:58:55;2.15;;;1.65;;
54372;SDS011;69157;53.094;10.016;2023-05-10T04:01:21;2.55;;;1.13;;
54372;SDS011;69157;53.094;10.016;2023-05-10T04:03:47;2.38;;;1.65;;
54372;SDS011;69157;53.094;10.016;2023-05-10T04:06:13;1.23;;;1.10;;
54372;SDS011;69157;53.094;10.016;2023-05-10T04:08:39;1.80;;;1.38;;
54372;SDS011;69157;53.094;10.016;2023-05-10T04:11:09;2.25;;;1.55;;
54372;SDS011;69157;53.094;10.016;2023-05-10T04:13:36;2.20;;;1.48;;
54372;SDS011;69157;53.094;10.016;2023-05-10T04:16:03;1.52;;;1.20;;
54372;SDS011;69157;53.094;10.016;2023-05-10T04:18:29;3.05;;;1.80;;
54372;SDS011;69157;53.094;10.016;2023-05-10T04:20:55;2.13;;;1.13;;
54372;SDS011;69157;53.094;10.016;2023-05-10T04:23:21;1.67;;;1.30;;
54372;SDS011;69157;53.094;10.016;2023-05-10T04:25:48;2.85;;;1.80;;
54372;SDS011;69157;53.094;10.016;2023-05-10T04:28:14;1.70;;;1.35;;
54372;SDS011;69157;53.094;10.016;2023-05-10T04:30:40;1.98;;;1.45;;
54372;SDS011;69157;53.094;10.016;2023-05-10T04:33:06;1.73;;;1.25;;
54372;SDS011;69157;53.094;10.016;2023-05-10T04:35:32;1.95;;;1.48;;
54372;SDS011;69157;53.094;10.016;2023-05-10T04:37:59;2.20;;;1.40;;
54372;SDS011;69157;53.094;10.016;2023-05-10T04:40:25;2.13;;;1.58;;
54372;SDS011;69157;53.094;10.016;2023-05-10T04:42:51;2.85;;;1.50;;
54372;SDS011;69157;53.094;10.016;2023-05-10T04:45:17;1.67;;;1.30;;
54372;SDS011;69157;53.094;10.016;2023-05-10T04:47:43;1.65;;;1.27;;
54372;SDS011;69157;53.094;10.016;2023-05-10T04:50:09;3.55;;;1.77;;
54372;SDS011;69157;53.094;10.016;2023-05-10T04:52:35;2.30;;;1.58;;
54372;SDS011;69157;53.094;10.016;2023-05-10T04:55:01;1.55;;;1.30;;
54372;SDS011;69157;53.094;10.016;2023-05-10T04:57:27;1.77;;;1.38;;
54372;SDS011;69157;53.094;10.016;2023-05-10T04:59:53;2.90;;;1.52;;
54372;SDS011;69157;53.094;10.016;2023-05-10T05:02:20;1.95;;;1.20;;
54372;SDS011;69157;53.094;10.016;2023-05-10T05:04:46;1.58;;;1.45;;
54372;SDS011;69157;53.094;10.016;2023-05-10T05:07:12;2.10;;;1.40;;
54372;SDS011;69157;53.094;10.016;2023-05-10T05:09:38;1.88;;;1.50;;
54372;SDS011;69157;53.094;10.016;2023-05-10T05:12:04;3.65;;;1.65;;
54372;SDS011;69157;53.094;10.016;2023-05-10T05:14:31;1.63;;;1.20;;
54372;SDS011;69157;53.094;10.016;2023-05-10T05:16:57;1.88;;;1.45;;
54372;SDS011;69157;53.094;10.016;2023-05-10T05:19:23;2.33;;;1.38;;
54372;SDS011;69157;53.094;10.016;2023-05-10T05:21:49;2.72;;;1.42;;
54372;SDS011;69157;53.094;10.016;2023-05-10T05:24:15;1.23;;;1.02;;
54372;SDS011;69157;53.094;10.016;2023-05-10T05:26:41;2.10;;;1.58;;
54372;SDS011;69157;53.094;10.016;2023-05-10T05:29:07;1.70;;;1.20;;
54372;SDS011;69157;53.094;10.016;2023-05-10T05:31:33;2.55;;;1.50;;
54372;SDS011;69157;53.094;10.016;2023-05-10T05:33:59;2.15;;;1.33;;
54372;SDS011;69157;53.094;10.016;2023-05-10T05:36:25;1.80;;;1.30;;
54372;SDS011;69157;53.094;10.016;2023-05-10T05:38:51;2.20;;;1.48;;
54372;SDS011;69157;53.094;10.016;2023-05-10T05:41:17;2.80;;;1.88;;
54372;SDS011;69157;53.094;10.016;2023-05-10T05:43:43;3.88;;;1.40;;
54372;SDS011;69157;53.094;10.016;2023-05-10T05:46:09;2.75;;;1.80;;
54372;SDS011;69157;53.094;10.016;2023-05-10T05:48:35;1.92;;;1.52;;
54372;SDS011;69157;53.094;10.016;2023-05-10T05:51:01;7.18;;;1.95;;
54372;SDS011;69157;53.094;10.016;2023-05-10T05:53:27;2.60;;;1.42;;
54372;SDS011;69157;53.094;10.016;2023-05-10T05:55:54;2.88;;;1.38;;
54372;SDS011;69157;53.094;10.016;2023-05-10T05:58:21;5.00;;;1.50;;
54372;SDS011;69157;53.094;10.016;2023-05-10T06:00:47;3.70;;;1.90;;
54372;SDS011;69157;53.094;10.016;2023-05-10T06:03:13;2.88;;;1.40;;
54372;SDS011;69157;53.094;10.016;2023-05-10T06:05:40;3.58;;;1.67;;
54372;SDS011;69157;53.094;10.016;2023-05-10T06:08:06;1.40;;;1.30;;
54372;SDS011;69157;53.094;10.016;2023-05-10T06:10:32;2.35;;;1.30;;
54372;SDS011;69157;53.094;10.016;2023-05-10T06:12:58;2.45;;;1.50;;
54372;SDS011;69157;53.094;10.016;2023-05-10T06:15:24;2.90;;;1.23;;
54372;SDS011;69157;53.094;10.016;2023-05-10T06:17:51;2.58;;;1.35;;
54372;SDS011;69157;53.094;10.016;2023-05-10T06:20:17;4.78;;;1.40;;
54372;SDS011;69157;53.094;10.016;2023-05-10T06:22:43;2.38;;;1.50;;
54372;SDS011;69157;53.094;10.016;2023-05-10T06:25:09;2.17;;;1.67;;
54372;SDS011;69157;53.094;10.016;2023-05-10T06:27:36;1.90;;;1.40;;
54372;SDS011;69157;53.094;10.016;2023-05-10T06:30:02;2.20;;;1.38;;
54372;SDS011;69157;53.094;10.016;2023-05-10T06:32:29;1.83;;;1.23;;
54372;SDS011;69157;53.094;10.016;2023-05-10T06:34:56;2.60;;;1.35;;
54372;SDS011;69157;53.094;10.016;2023-05-10T06:37:22;4.72;;;1.38;;
54372;SDS011;69157;53.094;10.016;2023-05-10T06:39:48;2.20;;;1.40;;
54372;SDS011;69157;53.094;10.016;2023-05-10T06:42:15;3.05;;;1.42;;
54372;SDS011;69157;53.094;10.016;2023-05-10T06:44:41;1.65;;;1.20;;
54372;SDS011;69157;53.094;10.016;2023-05-10T06:47:08;2.10;;;1.17;;
54372;SDS011;69157;53.094;10.016;2023-05-10T06:49:34;1.58;;;1.20;;
54372;SDS011;69157;53.094;10.016;2023-05-10T06:52:00;2.13;;;1.40;;
54372;SDS011;69157;53.094;10.016;2023-05-10T06:54:26;2.35;;;1.20;;
54372;SDS011;69157;53.094;10.016;2023-05-10T06:56:52;1.40;;;1.20;;
54372;SDS011;69157;53.094;10.016;2023-05-10T06:59:18;1.98;;;1.45;;
54372;SDS011;69157;53.094;10.016;2023-05-10T07:01:46;2.40;;;1.30;;
54372;SDS011;69157;53.094;10.016;2023-05-10T07:04:12;1.55;;;1.00;;
54372;SDS011;69157;53.094;10.016;2023-05-10T07:06:38;2.17;;;1.40;;
54372;SDS011;69157;53.094;10.016;2023-05-10T07:09:04;1.88;;;1.10;;
54372;SDS011;69157;53.094;10.016;2023-05-10T07:11:30;1.25;;;0.90;;
54372;SDS011;69157;53.094;10.016;2023-05-10T07:13:57;1.50;;;1.30;;
54372;SDS011;69157;53.094;10.016;2023-05-10T07:16:23;2.22;;;1.52;;
54372;SDS011;69157;53.094;10.016;2023-05-10T07:18:49;2.67;;;1.30;;
54372;SDS011;69157;53.094;10.016;2023-05-10T07:21:15;1.35;;;1.13;;
54372;SDS011;69157;53.094;10.016;2023-05-10T07:23:41;4.43;;;1.23;;
54372;SDS011;69157;53.094;10.016;2023-05-10T07:26:07;1.67;;;1.50;;
54372;SDS011;69157;53.094;10.016;2023-05-10T07:28:34;2.13;;;1.45;;
54372;SDS011;69157;53.094;10.016;2023-05-10T07:31:02;1.70;;;1.42;;
54372;SDS011;69157;53.094;10.016;2023-05-10T07:33:28;1.80;;;1.60;;
54372;SDS011;69157;53.094;10.016;2023-05-10T07:35:54;1.58;;;1.20;;
54372;SDS011;69157;53.094;10.016;2023-05-10T07:38:20;1.13;;;0.98;;
54372;SDS011;69157;53.094;10.016;2023-05-10T07:40:46;1.77;;;1.50;;
54372;SDS011;69157;53.094;10.016;2023-05-10T07:43:12;1.77;;;1.52;;
54372;SDS011;69157;53.094;10.016;2023-05-10T07:45:38;3.35;;;1.50;;
54372;SDS011;69157;53.094;10.016;2023-05-10T07:48:04;1.38;;;1.27;;
54372;SDS011;69157;53.094;10.016;2023-05-10T07:50:30;1.83;;;1.50;;
54372;SDS011;69157;53.094;10.016;2023-05-10T07:52:57;2.03;;;1.63;;
54372;SDS011;69157;53.094;10.016;2023-05-10T07:55:23;2.10;;;1.50;;
54372;SDS011;69157;53.094;10.016;2023-05-10T07:57:49;2.63;;;1.70;;
54372;SDS011;69157;53.094;10.016;2023-05-10T08:00:19;2.17;;;1.45;;
54372;SDS011;69157;53.094;10.016;2023-05-10T08:02:45;2.67;;;1.13;;
54372;SDS011;69157;53.094;10.016;2023-05-10T08:05:11;1.65;;;1.40;;
54372;SDS011;69157;53.094;10.016;2023-05-10T08:07:38;3.72;;;1.45;;
54372;SDS011;69157;53.094;10.016;2023-05-10T08:10:04;3.03;;;1.60;;
54372;SDS011;69157;53.094;10.016;2023-05-10T08:12:30;2.50;;;1.55;;
54372;SDS011;69157;53.094;10.016;2023-05-10T08:14:56;2.13;;;1.40;;
54372;SDS011;69157;53.094;10.016;2023-05-10T08:17:23;3.15;;;1.63;;
54372;SDS011;69157;53.094;10.016;2023-05-10T08:19:49;2.28;;;1.42;;
54372;SDS011;69157;53.094;10.016;2023-05-10T08:22:15;2.25;;;1.27;;
54372;SDS011;69157;53.094;10.016;2023-05-10T08:24:41;2.00;;;1.48;;
54372;SDS011;69157;53.094;10.016;2023-05-10T08:27:07;2.78;;;2.03;;
54372;SDS011;69157;53.094;10.016;2023-05-10T08:29:34;1.30;;;1.20;;
54372;SDS011;69157;53.094;10.016;2023-05-10T08:32:00;2.33;;;1.80;;
54372;SDS011;69157;53.094;10.016;2023-05-10T08:34:26;1.23;;;1.15;;
54372;SDS011;69157;53.094;10.016;2023-05-10T08:36:52;2.38;;;1.58;;
54372;SDS011;69157;53.094;10.016;2023-05-10T08:39:18;3.15;;;1.38;;
54372;SDS011;69157;53.094;10.016;2023-05-10T08:41:45;2.45;;;1.60;;
54372;SDS011;69157;53.094;10.016;2023-05-10T08:44:12;3.03;;;2.13;;
54372;SDS011;69157;53.094;10.016;2023-05-10T08:46:38;2.83;;;1.90;;
54372;SDS011;69157;53.094;10.016;2023-05-10T08:49:09;2.83;;;1.75;;
54372;SDS011;69157;53.094;10.016;2023-05-10T08:51:36;2.70;;;1.73;;
54372;SDS011;69157;53.094;10.016;2023-05-10T08:54:04;2.15;;;1.50;;
54372;SDS011;69157;53.094;10.016;2023-05-10T08:56:30;3.13;;;2.10;;
54372;SDS011;69157;53.094;10.016;2023-05-10T08:58:56;3.80;;;2.17;;
54372;SDS011;69157;53.094;10.016;2023-05-10T09:01:22;2.95;;;2.25;;
54372;SDS011;69157;53.094;10.016;2023-05-10T09:03:49;4.63;;;2.50;;
54372;SDS011;69157;53.094;10.016;2023-05-10T09:06:16;4.07;;;2.42;;
54372;SDS011;69157;53.094;10.016;2023-05-10T09:08:42;3.72;;;2.10;;
54372;SDS011;69157;53.094;10.016;2023-05-10T09:11:09;3.60;;;1.92;;
54372;SDS011;69157;53.094;10.016;2023-05-10T09:13:36;2.25;;;1.80;;
54372;SDS011;69157;53.094;10.016;2023-05-10T09:16:02;3.08;;;2.05;;
54372;SDS011;69157;53.094;10.016;2023-05-10T09:18:28;3.22;;;2.28;;
54372;SDS011;69157;53.094;10.016;2023-05-10T09:20:54;2.70;;;1.55;;
54372;SDS011;69157;53.094;10.016;2023-05-10T09:23:20;3.42;;;2.30;;
54372;SDS011;69157;53.094;10.016;2023-05-10T09:25:47;5.07;;;2.35;;
54372;SDS011;69157;53.094;10.016;2023-05-10T09:28:13;3.65;;;2.28;;
54372;SDS011;69157;53.094;10.016;2023-05-10T09:30:39;3.00;;;2.05;;
54372;SDS011;69157;53.094;10.016;2023-05-10T09:33:05;4.13;;;2.30;;
54372;SDS011;69157;53.094;10.016;2023-05-10T09:35:32;4.07;;;2.08;;
54372;SDS011;69157;53.094;10.016;2023-05-10T09:38:04;2.95;;;1.85;;
54372;SDS011;69157;53.094;10.016;2023-05-10T09:40:31;3.28;;;2.13;;
54372;SDS011;69157;53.094;10.016;2023-05-10T09:42:58;3.30;;;2.17;;
54372;SDS011;69157;53.094;10.016;2023-05-10T09:45:25;4.47;;;2.80;;
54372;SDS011;69157;53.094;10.016;2023-05-10T09:47:51;3.28;;;2.40;;
54372;SDS011;69157;53.094;10.016;2023-05-10T09:50:18;4.35;;;2.58;;
54372;SDS011;69157;53.094;10.016;2023-05-10T09:52:57;4.40;;;2.42;;
54372;SDS011;69157;53.094;10.016;2023-05-10T09:55:38;4.13;;;2.72;;
54372;SDS011;69157;53.094;10.016;2023-05-10T09:58:05;4.75;;;2.42;;
54372;SDS011;69157;53.094;10.016;2023-05-10T10:00:41;5.05;;;2.92;;
54372;SDS011;69157;53.094;10.016;2023-05-10T10:03:14;4.10;;;2.60;;
54372;SDS011;69157;53.094;10.016;2023-05-10T10:05:40;5.30;;;2.83;;
54372;SDS011;69157;53.094;10.016;2023-05-10T10:08:07;6.05;;;3.13;;
54372;SDS011;69157;53.094;10.016;2023-05-10T10:10:33;5.13;;;3.15;;
54372;SDS011;69157;53.094;10.016;2023-05-10T10:13:00;4.18;;;2.33;;
54372;SDS011;69157;53.094;10.016;2023-05-10T10:15:26;4.15;;;2.67;;
54372;SDS011;69157;53.094;10.016;2023-05-10T10:17:52;5.72;;;2.78;;
54372;SDS011;69157;53.094;10.016;2023-05-10T10:20:19;4.20;;;2.70;;
54372;SDS011;69157;53.094;10.016;2023-05-10T10:22:46;4.22;;;2.80;;
54372;SDS011;69157;53.094;10.016;2023-05-10T10:25:13;5.38;;;2.80;;
54372;SDS011;69157;53.094;10.016;2023-05-10T10:27:45;4.68;;;2.80;;
54372;SDS011;69157;53.094;10.016;2023-05-10T10:35:25;4.03;;;2.30;;
54372;SDS011;69157;53.094;10.016;2023-05-10T10:37:51;3.60;;;2.05;;
54372;SDS011;69157;53.094;10.016;2023-05-10T10:42:50;3.22;;;2.70;;
54372;SDS011;69157;53.094;10.016;2023-05-10T10:45:16;5.10;;;2.78;;
54372;SDS011;69157;53.094;10.016;2023-05-10T10:47:43;5.30;;;2.63;;
54372;SDS011;69157;53.094;10.016;2023-05-10T10:50:10;4.15;;;2.72;;
54372;SDS011;69157;53.094;10.016;2023-05-10T10:52:41;5.03;;;3.10;;
54372;SDS011;69157;53.094;10.016;2023-05-10T11:03:08;3.92;;;2.53;;
54372;SDS011;69157;53.094;10.016;2023-05-10T11:05:42;4.97;;;2.90;;
54372;SDS011;69157;53.094;10.016;2023-05-10T11:13:28;4.45;;;2.38;;
54372;SDS011;69157;53.094;10.016;2023-05-10T11:15:55;3.47;;;2.15;;
54372;SDS011;69157;53.094;10.016;2023-05-10T11:20:51;5.43;;;2.92;;
54372;SDS011;69157;53.094;10.016;2023-05-10T11:23:17;3.97;;;2.38;;
54372;SDS011;69157;53.094;10.016;2023-05-10T11:25:44;3.10;;;2.28;;
54372;SDS011;69157;53.094;10.016;2023-05-10T11:28:11;3.33;;;2.05;;
54372;SDS011;69157;53.094;10.016;2023-05-10T11:30:38;3.72;;;2.08;;
54372;SDS011;69157;53.094;10.016;2023-05-10T11:33:05;3.17;;;1.83;;
54372;SDS011;69157;53.094;10.016;2023-05-10T11:35:36;3.55;;;2.00;;
54372;SDS011;69157;53.094;10.016;2023-05-10T11:38:04;4.20;;;2.08;;
54372;SDS011;69157;53.094;10.016;2023-05-10T11:40:30;3.05;;;1.65;;
54372;SDS011;69157;53.094;10.016;2023-05-10T11:42:56;2.78;;;1.60;;
54372;SDS011;69157;53.094;10.016;2023-05-10T11:45:25;3.60;;;2.00;;
54372;SDS011;69157;53.094;10.016;2023-05-10T11:47:53;2.85;;;1.75;;
54372;SDS011;69157;53.094;10.016;2023-05-10T11:50:19;1.95;;;1.52;;
54372;SDS011;69157;53.094;10.016;2023-05-10T11:52:49;2.22;;;1.52;;
54372;SDS011;69157;53.094;10.016;2023-05-10T11:55:16;2.53;;;1.67;;
54372;SDS011;69157;53.094;10.016;2023-05-10T11:57:42;3.28;;;2.13;;
54372;SDS011;69157;53.094;10.016;2023-05-10T12:00:11;2.53;;;1.52;;
54372;SDS011;69157;53.094;10.016;2023-05-10T12:02:37;2.53;;;1.60;;
54372;SDS011;69157;53.094;10.016;2023-05-10T12:05:03;2.72;;;1.55;;
54372;SDS011;69157;53.094;10.016;2023-05-10T12:07:30;3.42;;;2.20;;
54372;SDS011;69157;53.094;10.016;2023-05-10T12:10:03;2.33;;;1.75;;
54372;SDS011;69157;53.094;10.016;2023-05-10T12:12:39;1.98;;;1.70;;
54372;SDS011;69157;53.094;10.016;2023-05-10T12:15:10;2.55;;;1.75;;
54372;SDS011;69157;53.094;10.016;2023-05-10T12:17:37;2.20;;;1.60;;
54372;SDS011;69157;53.094;10.016;2023-05-10T12:20:17;2.03;;;1.50;;
54372;SDS011;69157;53.094;10.016;2023-05-10T12:22:46;4.50;;;1.80;;
54372;SDS011;69157;53.094;10.016;2023-05-10T12:25:13;3.05;;;1.73;;
54372;SDS011;69157;53.094;10.016;2023-05-10T12:27:39;1.80;;;1.50;;
54372;SDS011;69157;53.094;10.016;2023-05-10T12:30:05;4.30;;;1.73;;
54372;SDS011;69157;53.094;10.016;2023-05-10T12:32:41;2.95;;;1.80;;
54372;SDS011;69157;53.094;10.016;2023-05-10T12:35:07;2.70;;;1.70;;
54372;SDS011;69157;53.094;10.016;2023-05-10T12:37:33;2.72;;;1.75;;
54372;SDS011;69157;53.094;10.016;2023-05-10T12:40:01;2.42;;;1.73;;
54372;SDS011;69157;53.094;10.016;2023-05-10T12:42:28;2.92;;;1.90;;
54372;SDS011;69157;53.094;10.016;2023-05-10T12:44:55;4.43;;;2.17;;
54372;SDS011;69157;53.094;10.016;2023-05-10T12:47:22;2.30;;;1.80;;
54372;SDS011;69157;53.094;10.016;2023-05-10T12:49:48;2.65;;;1.70;;
54372;SDS011;69157;53.094;10.016;2023-05-10T12:52:14;3.17;;;1.90;;
54372;SDS011;69157;53.094;10.016;2023-05-10T12:54:40;1.95;;;1.65;;
54372;SDS011;69157;53.094;10.016;2023-05-10T12:57:06;2.38;;;1.70;;
54372;SDS011;69157;53.094;10.016;2023-05-10T12:59:32;2.53;;;1.63;;
54372;SDS011;69157;53.094;10.016;2023-05-10T13:01:58;2.60;;;1.77;;
54372;SDS011;69157;53.094;10.016;2023-05-10T13:04:24;2.15;;;1.65;;
54372;SDS011;69157;53.094;10.016;2023-05-10T13:06:51;2.00;;;1.60;;
54372;SDS011;69157;53.094;10.016;2023-05-10T13:09:17;2.53;;;1.50;;
54372;SDS011;69157;53.094;10.016;2023-05-10T13:11:43;2.80;;;1.75;;
54372;SDS011;69157;53.094;10.016;2023-05-10T13:14:10;2.67;;;1.60;;
54372;SDS011;69157;53.094;10.016;2023-05-10T13:16:36;2.17;;;1.58;;
54372;SDS011;69157;53.094;10.016;2023-05-10T13:19:02;2.30;;;1.67;;
54372;SDS011;69157;53.094;10.016;2023-05-10T13:21:28;1.83;;;1.45;;
54372;SDS011;69157;53.094;10.016;2023-05-10T13:23:54;2.47;;;1.60;;
54372;SDS011;69157;53.094;10.016;2023-05-10T13:26:20;1.80;;;1.30;;
54372;SDS011;69157;53.094;10.016;2023-05-10T13:28:46;2.65;;;1.77;;
54372;SDS011;69157;53.094;10.016;2023-05-10T13:31:13;1.90;;;1.38;;
54372;SDS011;69157;53.094;10.016;2023-05-10T13:33:39;2.42;;;1.45;;
54372;SDS011;69157;53.094;10.016;2023-05-10T13:36:06;2.00;;;1.38;;
54372;SDS011;69157;53.094;10.016;2023-05-10T13:38:32;1.30;;;1.13;;
54372;SDS011;69157;53.094;10.016;2023-05-10T13:40:58;2.10;;;1.48;;
54372;SDS011;69157;53.094;10.016;2023-05-10T13:43:24;2.10;;;1.35;;
54372;SDS011;69157;53.094;10.016;2023-05-10T13:45:50;2.13;;;1.48;;
54372;SDS011;69157;53.094;10.016;2023-05-10T13:48:17;1.55;;;1.40;;
54372;SDS011;69157;53.094;10.016;2023-05-10T13:50:43;1.95;;;1.45;;
54372;SDS011;69157;53.094;10.016;2023-05-10T13:53:09;2.17;;;1.52;;
54372;SDS011;69157;53.094;10.016;2023-05-10T13:55:35;2.08;;;1.35;;
54372;SDS011;69157;53.094;10.016;2023-05-10T13:58:01;1.27;;;1.10;;
54372;SDS011;69157;53.094;10.016;2023-05-10T14:00:27;1.35;;;1.10;;
54372;SDS011;69157;53.094;10.016;2023-05-10T14:02:53;1.80;;;1.30;;
54372;SDS011;69157;53.094;10.016;2023-05-10T14:05:19;1.52;;;1.20;;
54372;SDS011;69157;53.094;10.016;2023-05-10T14:07:45;1.92;;;1.30;;
54372;SDS011;69157;53.094;10.016;2023-05-10T14:10:12;1.55;;;1.35;;
54372;SDS011;69157;53.094;10.016;2023-05-10T14:12:38;1.83;;;1.10;;
54372;SDS011;69157;53.094;10.016;2023-05-10T14:15:04;1.73;;;1.48;;
54372;SDS011;69157;53.094;10.016;2023-05-10T14:17:31;1.20;;;1.10;;
54372;SDS011;69157;53.094;10.016;2023-05-10T14:19:57;2.20;;;1.35;;
54372;SDS011;69157;53.094;10.016;2023-05-10T14:22:24;2.00;;;1.50;;
54372;SDS011;69157;53.094;10.016;2023-05-10T14:24:50;2.38;;;1.40;;
54372;SDS011;69157;53.094;10.016;2023-05-10T14:27:16;2.20;;;1.13;;
54372;SDS011;69157;53.094;10.016;2023-05-10T14:29:42;3.28;;;1.75;;
54372;SDS011;69157;53.094;10.016;2023-05-10T14:32:08;1.92;;;1.40;;
54372;SDS011;69157;53.094;10.016;2023-05-10T14:34:34;2.00;;;1.77;;
54372;SDS011;69157;53.094;10.016;2023-05-10T14:37:00;1.95;;;1.40;;
54372;SDS011;69157;53.094;10.016;2023-05-10T14:39:26;2.35;;;1.30;;
54372;SDS011;69157;53.094;10.016;2023-05-10T14:41:54;2.63;;;1.60;;
54372;SDS011;69157;53.094;10.016;2023-05-10T14:44:20;2.00;;;1.50;;
54372;SDS011;69157;53.094;10.016;2023-05-10T14:46:47;2.22;;;1.40;;
54372;SDS011;69157;53.094;10.016;2023-05-10T14:49:13;4.03;;;1.90;;
54372;SDS011;69157;53.094;10.016;2023-05-10T14:51:40;2.58;;;1.83;;
54372;SDS011;69157;53.094;10.016;2023-05-10T14:54:06;2.58;;;1.95;;
54372;SDS011;69157;53.094;10.016;2023-05-10T14:56:32;1.95;;;1.40;;
54372;SDS011;69157;53.094;10.016;2023-05-10T14:58:58;3.17;;;1.75;;
54372;SDS011;69157;53.094;10.016;2023-05-10T15:01:25;2.30;;;1.45;;
54372;SDS011;69157;53.094;10.016;2023-05-10T15:03:51;1.98;;;1.25;;
54372;SDS011;69157;53.094;10.016;2023-05-10T15:06:17;1.58;;;1.02;;
54372;SDS011;69157;53.094;10.016;2023-05-10T15:08:49;2.08;;;1.00;;
54372;SDS011;69157;53.094;10.016;2023-05-10T15:11:15;1.17;;;0.82;;
54372;SDS011;69157;53.094;10.016;2023-05-10T15:13:41;1.10;;;0.90;;
54372;SDS011;69157;53.094;10.016;2023-05-10T15:16:07;1.30;;;0.50;;